Time;durP1;ratioP1;P1;durP2;ratioP2;P2;SDS_P1;SDS_P2;PMS_P1;PMS_P2;Temp;Humidity;BMP_temperature;BMP_pressure;BME280_temperature;BME280_humidity;BME280_pressure;Samples;Min_cycle;Max_cycle;Signal;HPM_P1;HPM_P2
2022/02/17 00:00:31;;;;;;;;;2.33;1.00;;;;;14.37;67.36;100283.91;5039369;28;45332;-51
2022/02/17 00:02:57;;;;;;;;;0.00;0.00;;;;;14.37;67.62;100284.78;5039475;28;45532;-51
2022/02/17 00:05:23;;;;;;;;;1.00;1.00;;;;;14.42;67.74;100276.69;5039577;28;45406;-50
2022/02/17 00:07:50;;;;;;;;;0.00;0.00;;;;;14.37;68.08;100278.63;5041560;28;46189;-52
2022/02/17 00:10:16;;;;;;;;;0.00;0.00;;;;;14.44;67.62;100291.56;5042541;28;45237;-52
2022/02/17 00:12:42;;;;;;;;;0.00;0.00;;;;;14.44;67.90;100293.34;5042722;28;45249;-51
2022/02/17 00:15:08;;;;;;;;;0.00;0.00;;;;;14.44;67.45;100262.47;5042912;28;45216;-51
2022/02/17 00:17:33;;;;;;;;;0.00;0.00;;;;;14.46;67.57;100302.06;5042702;28;45962;-51
2022/02/17 00:19:59;;;;;;;;;0.00;0.00;;;;;14.45;67.62;100261.56;5042839;28;45367;-48
2022/02/17 00:22:25;;;;;;;;;0.00;0.00;;;;;14.50;68.14;100273.75;5042850;28;45516;-49
2022/02/17 00:24:51;;;;;;;;;0.00;0.00;;;;;14.50;67.36;100258.72;5042653;28;45418;-48
2022/02/17 00:27:17;;;;;;;;;0.00;0.00;;;;;14.52;68.10;100271.91;5042218;28;45882;-50
2022/02/17 00:29:42;;;;;;;;;0.75;0.25;;;;;14.51;67.46;100281.59;5042499;28;45314;-52
2022/02/17 00:32:08;;;;;;;;;0.00;0.00;;;;;14.52;68.31;100283.34;5042645;28;45337;-52
2022/02/17 00:34:34;;;;;;;;;0.00;0.00;;;;;14.51;67.95;100267.53;5042674;28;45271;-51
2022/02/17 00:36:59;;;;;;;;;0.67;0.00;;;;;14.53;66.90;100294.78;5042433;28;46130;-52
2022/02/17 00:39:25;;;;;;;;;1.00;0.00;;;;;14.53;67.65;100300.94;5042261;28;45395;-49
2022/02/17 00:41:50;;;;;;;;;0.00;0.00;;;;;14.46;67.06;100283.56;5042291;28;45425;-52
2022/02/17 00:44:16;;;;;;;;;0.00;0.00;;;;;14.50;67.45;100308.09;5042357;28;45220;-52
2022/02/17 00:46:42;;;;;;;;;0.00;0.00;;;;;14.52;67.80;100304.47;5041056;28;47041;-49
2022/02/17 00:49:08;;;;;;;;;0.00;0.00;;;;;14.52;67.77;100291.25;5042514;28;45633;-52
2022/02/17 00:51:34;;;;;;;;;0.25;0.00;;;;;14.53;67.65;100303.56;5042210;28;45529;-53
2022/02/17 00:54:00;;;;;;;;;0.75;0.75;;;;;14.56;67.93;100319.31;5040964;28;45323;-49
2022/02/17 00:56:25;;;;;;;;;0.00;0.00;;;;;14.54;67.73;100333.50;5041907;28;45417;-52
2022/02/17 00:58:50;;;;;;;;;0.00;0.00;;;;;14.54;68.21;100336.16;5042091;28;45243;-52
2022/02/17 01:01:16;;;;;;;;;0.67;0.00;;;;;14.51;67.95;100331.84;5042107;28;45485;-52
2022/02/17 01:03:41;;;;;;;;;0.00;0.00;;;;;14.52;67.70;100344.16;5042224;28;45310;-50
2022/02/17 01:06:07;;;;;;;;;0.00;0.00;;;;;14.50;67.71;100351.25;5040902;28;48358;-52
2022/02/17 01:08:32;;;;;;;;;0.00;0.00;;;;;14.52;68.48;100362.66;5040842;28;45366;-52
2022/02/17 01:10:58;;;;;;;;;0.00;0.00;;;;;14.53;67.95;100353.81;5041804;28;45305;-53
2022/02/17 01:13:23;;;;;;;;;0.00;0.00;;;;;14.54;68.21;100386.38;5040424;28;45458;-64
2022/02/17 01:15:50;;;;;;;;;0.00;0.00;;;;;14.52;68.33;100362.66;5054040;28;48233;-53
2022/02/17 01:18:15;;;;;;;;;0.00;0.00;;;;;14.52;68.48;100369.72;5027808;28;45320;-51
2022/02/17 01:20:41;;;;;;;;;0.00;0.00;;;;;14.47;67.97;100375.19;5041931;28;45307;-52
2022/02/17 01:23:08;;;;;;;;;0.00;0.00;;;;;14.47;68.14;100367.25;5041830;28;45588;-50
2022/02/17 01:25:33;;;;;;;;;0.67;0.00;;;;;14.45;68.02;100361.13;5041536;28;45285;-51
2022/02/17 01:27:58;;;;;;;;;0.00;0.00;;;;;14.43;68.40;100347.13;5041514;28;45532;-53
2022/02/17 01:30:24;;;;;;;;;1.00;0.00;;;;;14.40;68.60;100381.59;5041850;28;45548;-53
2022/02/17 01:32:49;;;;;;;;;0.00;0.00;;;;;14.36;67.33;100375.56;5040376;28;45735;-52
2022/02/17 01:35:15;;;;;;;;;0.00;0.00;;;;;14.31;68.28;100372.22;5041740;28;46285;-52
2022/02/17 01:37:42;;;;;;;;;0.00;0.00;;;;;14.31;68.26;100398.66;5041478;28;45286;-53
2022/02/17 01:40:09;;;;;;;;;0.00;0.00;;;;;14.32;68.17;100407.47;5041547;28;45331;-52
2022/02/17 01:42:34;;;;;;;;;0.00;0.00;;;;;14.30;68.81;100423.34;5039862;28;45470;-53
2022/02/17 01:45:03;;;;;;;;;0.00;0.00;;;;;14.30;68.51;100420.69;5041069;28;46119;-52
2022/02/17 01:47:28;;;;;;;;;0.00;0.00;;;;;14.29;68.59;100416.34;5041351;28;45315;-52
2022/02/17 01:49:54;;;;;;;;;1.00;0.00;;;;;14.29;68.32;100427.78;5041415;28;45495;-53
2022/02/17 01:52:19;;;;;;;;;0.00;0.00;;;;;14.32;68.16;100433.88;5041359;28;45624;-52
2022/02/17 01:54:46;;;;;;;;;0.00;0.00;;;;;14.33;68.43;100427.69;5041031;28;46079;-52
2022/02/17 01:57:16;;;;;;;;;0.33;0.00;;;;;14.32;68.32;100425.97;5040987;28;45325;-52
2022/02/17 01:59:43;;;;;;;;;0.00;0.00;;;;;14.29;68.51;100408.44;5041310;28;45245;-53
2022/02/17 02:02:09;;;;;;;;;0.00;0.00;;;;;14.29;68.03;100435.72;5041333;28;45367;-53
2022/02/17 02:04:35;;;;;;;;;0.00;0.00;;;;;14.25;67.93;100436.75;5040882;28;45394;-50
2022/02/17 02:07:01;;;;;;;;;0.00;0.00;;;;;14.24;67.64;100431.50;5041323;28;45483;-51
2022/02/17 02:09:27;;;;;;;;;0.67;0.00;;;;;14.27;67.93;100439.31;5039562;28;45321;-52
2022/02/17 02:11:52;;;;;;;;;0.00;0.00;;;;;14.26;67.77;100437.59;5040766;28;45403;-51
2022/02/17 02:14:18;;;;;;;;;0.75;0.50;;;;;14.24;67.40;100429.72;5039529;28;47069;-58
2022/02/17 02:16:45;;;;;;;;;0.33;0.00;;;;;14.24;68.01;100439.44;5041164;28;45288;-52
2022/02/17 02:19:11;;;;;;;;;1.00;0.00;;;;;14.24;67.70;100450.88;5040945;28;45359;-50
2022/02/17 02:21:37;;;;;;;;;1.33;0.00;;;;;14.16;67.20;100444.09;5039523;28;46457;-51
2022/02/17 02:24:03;;;;;;;;;0.25;0.00;;;;;14.22;67.49;100460.59;5040473;28;45267;-53
2022/02/17 02:26:28;;;;;;;;;1.00;0.75;;;;;14.22;66.98;100467.69;5041095;28;45243;-52
2022/02/17 02:28:55;;;;;;;;;3.75;1.50;;;;;14.23;67.35;100454.41;5040387;28;45423;-52
2022/02/17 02:31:21;;;;;;;;;0.75;0.75;;;;;14.23;67.22;100464.13;5040790;28;45260;-53
2022/02/17 02:33:46;;;;;;;;;0.50;0.50;;;;;14.24;67.24;100455.28;5040374;28;45410;-52
2022/02/17 02:36:12;;;;;;;;;2.00;1.00;;;;;14.22;67.05;100455.31;5040782;28;45362;-49
2022/02/17 02:38:37;;;;;;;;;1.75;1.00;;;;;14.21;67.09;100453.59;5040649;28;45421;-52
2022/02/17 02:41:03;;;;;;;;;1.00;1.00;;;;;14.25;67.18;100470.22;5040391;28;45166;-52
2022/02/17 02:43:29;;;;;;;;;4.25;1.00;;;;;14.27;66.72;100474.53;5040108;28;45376;-51
2022/02/17 02:45:54;;;;;;;;;7.25;6.00;;;;;14.27;66.80;100485.09;5040417;28;45264;-51
2022/02/17 02:48:19;;;;;;;;;3.00;1.00;;;;;14.28;67.09;100486.84;5039261;28;45360;-53
2022/02/17 02:50:45;;;;;;;;;3.00;1.50;;;;;14.24;66.98;100487.00;5040425;28;45270;-50
2022/02/17 02:53:15;;;;;;;;;2.00;1.00;;;;;14.25;66.31;100489.59;5038989;28;46956;-52
2022/02/17 02:55:43;;;;;;;;;2.00;1.00;;;;;14.22;66.06;100494.97;5040203;28;45631;-53
2022/02/17 02:58:09;;;;;;;;;3.50;1.00;;;;;14.21;65.81;100495.03;5040075;28;45384;-51
2022/02/17 03:00:34;;;;;;;;;3.00;1.50;;;;;14.17;65.52;100488.97;5040316;28;45198;-52
2022/02/17 03:02:59;;;;;;;;;3.50;1.75;;;;;14.15;65.32;100488.19;5040075;28;45504;-51
2022/02/17 03:05:25;;;;;;;;;1.00;1.00;;;;;14.11;64.98;100482.13;5040404;28;45244;-51
2022/02/17 03:07:52;;;;;;;;;5.00;3.75;;;;;14.11;64.65;100489.16;5038769;28;45465;-53
2022/02/17 03:10:18;;;;;;;;;3.00;2.00;;;;;14.09;64.23;100489.22;5039893;28;45326;-50
2022/02/17 03:12:43;;;;;;;;;3.50;3.00;;;;;14.04;64.33;100498.25;5039569;28;45252;-52
2022/02/17 03:15:09;;;;;;;;;7.00;2.00;;;;;14.07;64.17;100500.75;5039950;28;45488;-50
2022/02/17 03:17:35;;;;;;;;;4.75;3.25;;;;;14.03;64.30;100505.28;5040047;28;45316;-52
2022/02/17 03:20:00;;;;;;;;;3.25;2.00;;;;;14.02;63.82;100503.53;5039913;28;45322;-52
2022/02/17 03:22:26;;;;;;;;;5.00;0.25;;;;;14.02;63.79;100500.06;5039752;28;46586;-49
2022/02/17 03:24:51;;;;;;;;;2.25;2.25;;;;;14.00;63.27;100496.59;5040001;28;45337;-50
2022/02/17 03:27:17;;;;;;;;;3.50;2.75;;;;;13.94;63.38;100503.78;5039656;28;45325;-51
2022/02/17 03:29:42;;;;;;;;;7.00;3.75;;;;;13.95;62.95;100505.53;5039760;28;45386;-49
2022/02/17 03:32:08;;;;;;;;;5.50;1.25;;;;;13.92;63.16;100508.28;5039725;28;45455;-49
2022/02/17 03:34:33;;;;;;;;;10.25;3.00;;;;;13.95;62.68;100502.03;5039825;28;45577;-48
2022/02/17 03:36:59;;;;;;;;;4.50;2.25;;;;;13.89;62.45;100504.88;5038605;28;45446;-48
2022/02/17 03:39:24;;;;;;;;;3.75;3.00;;;;;13.91;62.18;100503.03;5039603;28;45184;-51
2022/02/17 03:41:50;;;;;;;;;4.50;2.50;;;;;13.90;62.68;100523.31;5039290;28;47320;-49
2022/02/17 03:44:15;;;;;;;;;6.25;3.00;;;;;13.90;62.47;100523.31;5043264;28;45224;-51
2022/02/17 03:46:42;;;;;;;;;2.00;2.00;;;;;13.85;62.07;100517.31;5043407;28;45224;-50
2022/02/17 03:49:07;;;;;;;;;3.75;2.75;;;;;13.86;62.22;100521.69;5041837;28;45745;-51
2022/02/17 03:51:33;;;;;;;;;1.00;1.00;;;;;13.85;61.85;100527.88;5055034;28;48027;-51
2022/02/17 03:53:59;;;;;;;;;7.00;4.25;;;;;13.87;61.92;100528.66;5030106;28;45438;-51
2022/02/17 03:56:24;;;;;;;;;4.75;2.25;;;;;13.84;62.15;100531.41;5041760;28;45332;-48
2022/02/17 03:59:02;;;;;;;;;6.25;3.25;;;;;13.84;61.96;100543.78;5041553;28;45370;-50
2022/02/17 04:01:29;;;;;;;;;7.25;4.00;;;;;13.82;62.14;100557.88;5042855;28;45437;-50
2022/02/17 04:03:54;;;;;;;;;5.00;1.50;;;;;13.76;62.04;100550.16;5043077;28;45182;-49
2022/02/17 04:06:20;;;;;;;;;6.50;2.00;;;;;13.82;61.80;100570.22;5042922;28;45229;-51
2022/02/17 04:08:45;;;;;;;;;9.75;3.75;;;;;13.81;62.23;100566.72;5043082;28;45292;-52
2022/02/17 04:11:11;;;;;;;;;6.25;4.50;;;;;13.81;61.67;100571.13;5041186;28;46950;-49
2022/02/17 04:13:36;;;;;;;;;8.25;4.00;;;;;13.82;61.61;100562.28;5042701;28;45261;-49
2022/02/17 04:16:02;;;;;;;;;7.50;3.75;;;;;13.82;61.48;100588.69;5042868;28;45263;-47
2022/02/17 04:18:27;;;;;;;;;10.25;4.00;;;;;13.77;61.51;100587.97;5042792;28;45295;-49
2022/02/17 04:20:55;;;;;;;;;6.75;3.00;;;;;13.76;61.36;100610.88;5042557;28;46000;-51
2022/02/17 04:23:20;;;;;;;;;7.00;4.00;;;;;13.77;61.07;100601.19;5042659;28;45333;-48
2022/02/17 04:25:46;;;;;;;;;6.00;4.00;;;;;13.75;61.18;100611.78;5042524;28;45574;-51
2022/02/17 04:28:11;;;;;;;;;7.00;4.25;;;;;13.75;60.81;100595.94;5042248;28;45406;-49
2022/02/17 04:30:36;;;;;;;;;5.00;3.25;;;;;13.75;60.95;100593.31;5042415;28;45395;-49
2022/02/17 04:33:03;;;;;;;;;5.00;4.00;;;;;13.71;61.22;100599.59;5041125;28;45326;-50
2022/02/17 04:35:29;;;;;;;;;7.00;5.00;;;;;13.70;60.83;100628.66;5042442;28;45403;-49
2022/02/17 04:37:54;;;;;;;;;7.00;3.75;;;;;13.66;60.62;100617.34;5042308;28;45407;-51
2022/02/17 04:40:20;;;;;;;;;5.75;3.00;;;;;13.66;60.43;100627.91;5042079;28;45469;-50
2022/02/17 04:42:45;;;;;;;;;7.50;5.00;;;;;13.63;60.56;100644.72;5041035;28;45181;-46
2022/02/17 04:45:10;;;;;;;;;12.00;5.00;;;;;13.60;60.51;100634.22;5042202;28;45461;-51
2022/02/17 04:47:36;;;;;;;;;7.50;5.50;;;;;13.58;60.23;100646.59;5042390;28;45222;-51
2022/02/17 04:50:01;;;;;;;;;11.00;4.25;;;;;13.54;59.88;100663.44;5041953;28;45246;-49
2022/02/17 04:52:27;;;;;;;;;10.50;6.25;;;;;13.47;60.09;100651.31;5040886;28;45188;-50
2022/02/17 04:54:52;;;;;;;;;6.00;5.50;;;;;13.48;59.98;100653.94;5041234;28;45313;-49
2022/02/17 04:57:18;;;;;;;;;15.25;8.00;;;;;13.42;60.12;100656.72;5041949;28;45446;-49
2022/02/17 04:59:44;;;;;;;;;10.00;5.50;;;;;13.45;59.67;100677.75;5042018;28;45323;-49
2022/02/17 05:02:09;;;;;;;;;8.50;6.00;;;;;13.44;59.25;100680.44;5040831;28;45354;-50
2022/02/17 05:04:35;;;;;;;;;9.00;3.00;;;;;13.44;59.39;100685.72;5042192;28;45335;-50
2022/02/17 05:07:00;;;;;;;;;10.00;5.75;;;;;13.43;59.21;100686.63;5041910;28;45318;-47
2022/02/17 05:09:25;;;;;;;;;6.00;5.00;;;;;13.43;59.16;100686.63;5040204;28;47546;-49
2022/02/17 05:11:51;;;;;;;;;8.00;5.00;;;;;13.42;59.34;100698.09;5041531;28;45328;-51
2022/02/17 05:14:16;;;;;;;;;8.25;5.50;;;;;13.33;58.86;100688.59;5042157;28;45363;-50
2022/02/17 05:16:42;;;;;;;;;12.00;5.50;;;;;13.40;59.01;100702.56;5041839;28;45587;-47
2022/02/17 05:19:07;;;;;;;;;6.25;4.00;;;;;13.37;58.97;100702.59;5041771;28;46927;-48
2022/02/17 05:21:32;;;;;;;;;9.50;6.00;;;;;13.35;58.43;100697.34;5040322;28;45391;-51
2022/02/17 05:23:58;;;;;;;;;9.00;7.00;;;;;13.32;58.22;100713.28;5041835;28;45277;-47
2022/02/17 05:26:23;;;;;;;;;8.25;5.50;;;;;13.27;58.21;100717.78;5041722;28;45604;-46
2022/02/17 05:28:49;;;;;;;;;16.50;8.00;;;;;13.27;58.12;100716.03;5041178;28;46251;-47
2022/02/17 05:31:14;;;;;;;;;13.25;8.00;;;;;13.25;58.10;100736.31;5041505;28;45256;-47
2022/02/17 05:33:39;;;;;;;;;8.50;5.00;;;;;13.24;58.10;100737.22;5041699;28;45505;-46
2022/02/17 05:36:05;;;;;;;;;9.00;6.00;;;;;13.23;57.92;100727.59;5041550;28;45231;-46
2022/02/17 05:38:31;;;;;;;;;9.00;3.00;;;;;13.18;58.44;100718.88;5041439;28;46222;-51
2022/02/17 05:40:56;;;;;;;;;10.25;7.25;;;;;13.21;57.89;100731.16;5041096;28;45244;-47
2022/02/17 05:43:21;;;;;;;;;8.75;4.25;;;;;13.19;58.18;100727.69;5041169;28;45316;-46
2022/02/17 05:45:47;;;;;;;;;6.75;2.75;;;;;13.17;58.11;100740.94;5041219;28;45408;-48
2022/02/17 05:48:13;;;;;;;;;7.75;6.75;;;;;13.17;57.64;100738.28;5041226;28;46063;-47
2022/02/17 05:50:38;;;;;;;;;12.75;5.75;;;;;13.11;57.92;100741.06;5040969;28;45251;-50
2022/02/17 05:53:04;;;;;;;;;6.75;4.75;;;;;13.08;58.17;100744.66;5040162;28;45382;-47
2022/02/17 05:55:29;;;;;;;;;10.75;6.75;;;;;13.07;57.56;100744.66;5041032;28;45435;-48
2022/02/17 05:57:55;;;;;;;;;8.75;5.00;;;;;13.05;58.02;100741.22;5040771;28;46224;-48
2022/02/17 06:00:21;;;;;;;;;9.00;6.50;;;;;13.04;57.93;100756.16;5040965;28;45327;-48
2022/02/17 06:02:46;;;;;;;;;8.50;5.25;;;;;13.01;57.75;100751.84;5041208;28;45327;-48
2022/02/17 06:05:12;;;;;;;;;6.50;4.00;;;;;12.98;57.36;100741.38;5040591;28;45318;-49
2022/02/17 06:07:39;;;;;;;;;7.25;6.00;;;;;13.01;57.66;100761.53;5040934;28;45444;-48
2022/02/17 06:10:06;;;;;;;;;9.00;5.50;;;;;12.96;57.93;100753.72;5040479;28;45220;-52
2022/02/17 06:12:31;;;;;;;;;9.50;6.00;;;;;12.98;57.91;100756.31;5040743;28;45252;-49
2022/02/17 06:14:57;;;;;;;;;12.25;6.75;;;;;12.98;57.47;100767.75;5040759;28;45248;-51
2022/02/17 06:17:23;;;;;;;;;15.25;6.50;;;;;12.99;57.81;100768.59;5040775;28;46216;-51
2022/02/17 06:19:48;;;;;;;;;8.25;6.75;;;;;12.98;58.07;100775.66;5039241;28;45239;-49
2022/02/17 06:22:14;;;;;;;;;10.25;5.50;;;;;12.95;57.78;100778.34;5040927;28;45171;-50
2022/02/17 06:24:39;;;;;;;;;11.25;9.25;;;;;12.91;58.07;100768.78;5040546;28;45299;-51
2022/02/17 06:27:04;;;;;;;;;11.00;6.25;;;;;12.88;57.82;100784.69;5040448;28;45496;-49
2022/02/17 06:29:30;;;;;;;;;15.50;7.25;;;;;12.80;58.53;100773.44;5040537;28;45437;-50
2022/02/17 06:31:55;;;;;;;;;16.75;10.25;;;;;12.78;57.78;100773.50;5040826;28;45251;-50
2022/02/17 06:34:21;;;;;;;;;11.75;7.25;;;;;12.72;58.05;100772.78;5040541;28;45317;-50
2022/02/17 06:36:48;;;;;;;;;10.50;5.50;;;;;12.72;58.18;100793.88;5039241;28;47260;-50
2022/02/17 06:39:14;;;;;;;;;12.25;7.50;;;;;12.70;58.07;100811.47;5040295;28;45468;-50
2022/02/17 06:41:40;;;;;;;;;9.25;7.00;;;;;12.67;57.99;100809.78;5040278;28;45419;-51
2022/02/17 06:44:06;;;;;;;;;19.25;10.25;;;;;12.65;58.36;100804.53;5040190;28;45212;-51
2022/02/17 06:46:33;;;;;;;;;6.25;4.50;;;;;12.67;58.22;100839.63;5040334;28;45220;-49
2022/02/17 06:48:58;;;;;;;;;15.00;5.00;;;;;12.67;57.99;100850.19;5040164;28;45241;-48
2022/02/17 06:51:24;;;;;;;;;20.50;12.50;;;;;12.65;58.50;100833.53;5040254;28;45292;-51
2022/02/17 06:53:49;;;;;;;;;12.25;8.00;;;;;12.63;57.91;100845.88;5040224;28;45381;-47
2022/02/17 06:56:14;;;;;;;;;11.50;8.00;;;;;12.62;57.86;100838.00;5040159;28;46137;-49
2022/02/17 06:58:40;;;;;;;;;10.00;7.00;;;;;12.61;57.79;100847.66;5040007;28;45303;-49
2022/02/17 07:01:05;;;;;;;;;16.00;9.00;;;;;12.49;58.07;100842.66;5040235;28;45267;-51
2022/02/17 07:03:31;;;;;;;;;15.25;9.50;;;;;12.58;57.79;100860.03;5040120;28;45269;-52
2022/02/17 07:05:56;;;;;;;;;14.75;10.00;;;;;12.57;57.73;100859.19;5040042;28;45906;-48
2022/02/17 07:08:22;;;;;;;;;15.50;10.00;;;;;12.57;58.00;100872.38;5039839;28;45445;-49
2022/02/17 07:10:56;;;;;;;;;11.00;8.75;;;;;12.56;57.63;100875.91;5040025;28;45367;-51
2022/02/17 07:13:23;;;;;;;;;13.00;7.25;;;;;12.46;57.75;100854.13;5039819;28;45281;-53
2022/02/17 07:15:48;;;;;;;;;11.00;8.25;;;;;12.52;57.83;100868.97;5039334;28;45591;-51
2022/02/17 07:18:15;;;;;;;;;15.00;10.25;;;;;12.53;57.95;100873.34;5039533;28;45391;-53
2022/02/17 07:20:43;;;;;;;;;16.75;8.75;;;;;12.56;57.43;100872.41;5040095;28;45298;-47
2022/02/17 07:23:08;;;;;;;;;11.75;9.25;;;;;12.54;57.57;100885.63;5039816;28;45346;-50
2022/02/17 07:25:34;;;;;;;;;18.25;12.25;;;;;12.51;57.43;100883.91;5039606;28;45320;-50
2022/02/17 07:28:00;;;;;;;;;18.50;10.75;;;;;12.54;57.64;100876.81;5039582;28;45512;-47
2022/02/17 07:30:25;;;;;;;;;12.50;8.00;;;;;12.52;57.55;100890.91;5039881;28;45335;-50
2022/02/17 07:32:52;;;;;;;;;15.00;10.00;;;;;12.54;57.28;100903.19;5039699;28;45260;-49
2022/02/17 07:35:17;;;;;;;;;12.25;7.75;;;;;12.52;57.23;100917.25;5039682;28;47279;-50
2022/02/17 07:37:42;;;;;;;;;16.25;7.50;;;;;12.55;57.27;100916.34;5039529;28;45342;-51
2022/02/17 07:40:11;;;;;;;;;16.00;11.00;;;;;12.53;57.35;100918.16;5039715;28;45517;-50
2022/02/17 07:42:38;;;;;;;;;9.75;7.25;;;;;12.52;57.67;100927.81;5039673;28;45250;-52
2022/02/17 07:45:04;;;;;;;;;14.25;8.75;;;;;12.54;57.48;100930.44;5039133;28;46175;-51
2022/02/17 07:47:30;;;;;;;;;16.00;10.25;;;;;12.54;57.72;100929.56;5039688;28;45458;-51
2022/02/17 07:49:56;;;;;;;;;17.00;9.75;;;;;12.57;57.75;100924.22;5039433;28;45801;-50
2022/02/17 07:52:26;;;;;;;;;11.25;8.50;;;;;12.57;57.55;100948.81;5038577;28;45276;-51
2022/02/17 07:54:52;;;;;;;;;14.25;10.50;;;;;12.56;57.52;100947.06;5039156;28;46145;-50
2022/02/17 07:57:17;;;;;;;;;19.25;11.00;;;;;12.58;57.39;100942.66;5037876;28;45952;-52
2022/02/17 07:59:43;;;;;;;;;15.00;9.00;;;;;12.62;57.67;100948.75;5039309;28;45251;-49
2022/02/17 08:02:09;;;;;;;;;10.50;8.00;;;;;12.64;57.65;100945.16;5039553;28;45427;-49
2022/02/17 08:04:37;;;;;;;;;17.75;9.00;;;;;12.64;57.81;100953.06;5039250;28;46310;-52
2022/02/17 08:07:04;;;;;;;;;14.25;10.75;;;;;12.64;57.66;100952.19;5038282;28;45296;-50
2022/02/17 08:09:30;;;;;;;;;16.75;9.00;;;;;12.63;57.55;100963.66;5037873;28;45260;-47
2022/02/17 08:11:55;;;;;;;;;13.50;8.00;;;;;12.66;57.74;100956.53;5039046;28;45415;-53
2022/02/17 08:14:21;;;;;;;;;14.25;9.75;;;;;12.66;57.60;100953.91;5039050;28;45448;-53
2022/02/17 08:16:46;;;;;;;;;13.75;7.25;;;;;12.67;58.12;100955.66;5039528;28;45397;-51
2022/02/17 08:19:12;;;;;;;;;17.00;8.75;;;;;12.66;58.04;100961.81;5037975;28;45451;-51
2022/02/17 08:21:38;;;;;;;;;17.50;9.50;;;;;12.69;57.66;100958.25;5038013;28;45190;-49
2022/02/17 08:24:04;;;;;;;;;15.25;7.00;;;;;12.65;57.83;100952.19;5038845;28;46725;-52
2022/02/17 08:26:29;;;;;;;;;18.75;12.00;;;;;12.67;57.87;100960.91;5038972;28;45781;-52
2022/02/17 08:28:57;;;;;;;;;15.00;10.75;;;;;12.70;57.84;100964.41;5041818;28;45325;-52
2022/02/17 08:31:24;;;;;;;;;15.00;10.75;;;;;12.68;57.90;100989.03;5042478;28;45894;-49
2022/02/17 08:33:49;;;;;;;;;18.25;9.00;;;;;12.69;57.88;101008.34;5042193;28;46420;-52
2022/02/17 08:36:15;;;;;;;;;15.00;10.25;;;;;12.70;58.04;101006.59;5042527;28;45211;-49
2022/02/17 08:38:41;;;;;;;;;18.75;10.50;;;;;12.67;58.01;101036.53;5042433;28;45243;-53
2022/02/17 08:41:08;;;;;;;;;10.25;7.25;;;;;12.70;57.65;101020.63;5042179;28;45177;-50
2022/02/17 08:43:34;;;;;;;;;13.25;10.00;;;;;12.73;57.60;101020.59;5041737;28;46080;-51
2022/02/17 08:46:01;;;;;;;;;15.50;8.75;;;;;12.69;58.11;101018.88;5042319;28;45430;-49
2022/02/17 08:48:26;;;;;;;;;15.00;10.50;;;;;12.70;57.66;101014.50;5040950;28;45559;-50
2022/02/17 08:50:52;;;;;;;;;11.75;8.75;;;;;12.66;58.22;101021.59;5040745;28;45589;-47
2022/02/17 08:53:18;;;;;;;;;12.50;10.00;;;;;12.67;57.58;101021.56;5042035;28;46280;-48
2022/02/17 08:55:43;;;;;;;;;15.50;11.00;;;;;12.66;57.62;101035.63;5042137;28;45405;-52
2022/02/17 08:58:08;;;;;;;;;15.25;9.75;;;;;12.67;57.68;101021.56;5041905;28;45299;-50
2022/02/17 09:00:34;;;;;;;;;12.50;5.00;;;;;12.66;57.65;101027.72;5042137;28;45300;-50
2022/02/17 09:02:59;;;;;;;;;21.00;11.75;;;;;12.68;57.62;101038.28;5042256;28;45619;-52
2022/02/17 09:05:25;;;;;;;;;12.25;10.00;;;;;12.66;57.81;101033.00;5042168;28;45414;-50
2022/02/17 09:07:50;;;;;;;;;19.00;11.25;;;;;12.68;57.57;101044.41;5042180;28;45157;-50
2022/02/17 09:10:16;;;;;;;;;18.50;11.00;;;;;12.67;57.80;101024.19;5041694;28;45276;-52
2022/02/17 09:12:41;;;;;;;;;14.25;8.25;;;;;12.68;57.68;101033.00;5041521;28;47016;-49
2022/02/17 09:15:09;;;;;;;;;17.25;9.25;;;;;12.71;57.75;101029.44;5041990;28;45445;-48
2022/02/17 09:17:35;;;;;;;;;20.75;7.50;;;;;12.72;57.50;101031.19;5041905;28;45358;-52
2022/02/17 09:20:00;;;;;;;;;18.50;10.50;;;;;12.76;57.53;101036.34;5041701;28;45354;-50
2022/02/17 09:22:26;;;;;;;;;17.00;10.00;;;;;12.78;57.61;101034.56;5041679;28;45430;-51
2022/02/17 09:24:51;;;;;;;;;14.50;12.25;;;;;12.80;57.82;101034.53;5041788;28;45442;-51
2022/02/17 09:27:17;;;;;;;;;15.25;10.25;;;;;12.82;57.80;101051.19;5041545;28;45409;-52
2022/02/17 09:29:42;;;;;;;;;16.00;10.75;;;;;12.82;57.62;101054.69;5041473;28;45387;-49
2022/02/17 09:32:09;;;;;;;;;16.25;10.75;;;;;12.86;57.53;101049.38;5041445;28;45390;-50
2022/02/17 09:34:34;;;;;;;;;14.50;9.25;;;;;12.84;57.94;101058.19;5041664;28;45257;-51
2022/02/17 09:37:00;;;;;;;;;15.75;10.25;;;;;12.87;57.82;101051.97;5041448;28;45421;-52
2022/02/17 09:39:28;;;;;;;;;18.50;9.00;;;;;12.87;57.52;101061.63;5040681;28;45567;-51
2022/02/17 09:41:55;;;;;;;;;14.25;9.25;;;;;12.88;57.75;101077.47;5041099;28;46341;-52
2022/02/17 09:44:21;;;;;;;;;13.75;9.75;;;;;12.89;57.69;101104.69;5041183;28;45399;-51
2022/02/17 09:46:47;;;;;;;;;11.00;8.25;;;;;12.90;57.34;101088.84;5041371;28;45324;-52
2022/02/17 09:49:20;;;;;;;;;16.50;9.50;;;;;12.92;57.26;101096.75;5041535;28;45319;-48
2022/02/17 09:51:47;;;;;;;;;14.00;11.75;;;;;12.86;57.41;101087.16;5039675;28;46078;-51
2022/02/17 09:54:12;;;;;;;;;11.00;7.75;;;;;12.88;57.69;101093.28;5041219;28;45347;-49
2022/02/17 09:56:41;;;;;;;;;14.50;10.00;;;;;12.83;57.74;101089.88;5040963;28;45268;-50
2022/02/17 09:59:07;;;;;;;;;12.50;9.75;;;;;12.85;57.65;101106.50;5041465;28;45166;-48
2022/02/17 10:01:32;;;;;;;;;14.25;8.00;;;;;12.86;57.45;101088.94;5040725;28;46915;-52
2022/02/17 10:04:15;;;;;;;;;13.50;10.25;;;;;12.91;57.48;101092.34;5041238;28;45346;-47
2022/02/17 10:06:40;;;;;;;;;13.50;10.50;;;;;12.93;57.44;101099.34;5041102;28;45227;-53
2022/02/17 10:09:07;;;;;;;;;14.00;10.00;;;;;12.92;57.35;101096.75;5039688;28;45406;-52
2022/02/17 10:11:32;;;;;;;;;13.50;9.50;;;;;12.94;57.86;101124.81;5040485;28;46397;-51
2022/02/17 10:14:04;;;;;;;;;17.25;11.75;;;;;12.98;57.43;101102.75;5041042;28;45276;-51
2022/02/17 10:16:29;;;;;;;;;14.00;8.00;;;;;13.04;57.02;101114.09;5041149;28;45229;-51
2022/02/17 10:19:09;;;;;;;;;12.50;9.75;;;;;13.09;57.22;101117.50;5039457;28;45281;-52
2022/02/17 10:21:35;;;;;;;;;14.50;8.25;;;;;13.15;57.29;101112.13;5040862;28;46305;-50
2022/02/17 10:24:01;;;;;;;;;13.50;8.00;;;;;13.24;57.11;101117.22;5040628;28;45264;-51
2022/02/17 10:26:28;;;;;;;;;11.75;10.50;;;;;13.31;56.85;101112.72;5040702;28;45343;-50
2022/02/17 10:28:57;;;;;;;;;14.50;9.25;;;;;13.35;57.32;101119.66;5040517;28;45539;-50
2022/02/17 10:31:27;;;;;;;;;11.50;7.25;;;;;13.43;56.97;101112.50;5040527;28;46352;-49
2022/02/17 10:33:54;;;;;;;;;12.50;10.00;;;;;13.52;57.34;101124.66;5040423;28;45318;-49
2022/02/17 10:36:46;;;;;;;;;10.75;8.25;;;;;13.58;57.16;101121.00;5040771;28;45418;-50
2022/02/17 10:39:22;;;;;;;;;9.25;8.75;;;;;13.64;57.14;101131.44;5040287;28;45446;-50
2022/02/17 10:42:01;;;;;;;;;9.00;7.75;;;;;13.72;57.32;101126.00;5040101;28;45657;-51
2022/02/17 10:44:33;;;;;;;;;10.75;7.75;;;;;13.76;56.99;101136.47;5040317;28;45185;-49
2022/02/17 10:47:16;;;;;;;;;8.25;7.00;;;;;13.75;57.40;101140.00;5040478;28;45332;-47
2022/02/17 10:49:45;;;;;;;;;11.75;8.75;;;;;13.79;57.04;101144.31;5040231;28;45509;-50
2022/02/17 10:52:10;;;;;;;;;12.50;8.50;;;;;13.83;56.58;101147.75;5037626;28;47667;-47
2022/02/17 10:54:36;;;;;;;;;7.50;6.50;;;;;13.79;57.39;101148.75;5040432;28;45171;-52
2022/02/17 10:57:06;;;;;;;;;9.00;5.50;;;;;13.85;56.57;101145.97;5040191;28;45149;-51
2022/02/17 11:02:23;;;;;;;;;17.25;10.50;;;;;13.92;56.42;101159.91;5040192;28;45456;-50
2022/02/17 11:04:52;;;;;;;;;14.00;9.00;;;;;13.92;56.89;101171.38;5040038;28;45266;-48
2022/02/17 11:07:18;;;;;;;;;14.50;8.25;;;;;13.94;56.36;101171.31;5039195;28;45260;-50
2022/02/17 11:09:45;;;;;;;;;10.75;6.25;;;;;13.95;56.37;101173.06;5039535;28;45331;-48
2022/02/17 11:12:11;;;;;;;;;12.00;9.25;;;;;13.97;56.19;101171.25;5039752;28;45301;-49
2022/02/17 11:14:41;;;;;;;;;8.75;4.00;;;;;13.97;56.80;101160.66;5038593;28;45664;-47
2022/02/17 11:17:09;;;;;;;;;10.00;7.00;;;;;13.97;56.09;101177.41;5038892;28;45383;-50